Oilton, Oklahoma
Current Conditions -  °F | °C
As of 11:55 PM on Tuesday 21 Oct 2014 (Local Time) from KCUH Reporting Station
Scattered Clouds Scattered Clouds  
Wind Chill: 61°   Ceiling: Unl
Heat Index: 61°   Visibility: 10mi
Dew Point: 57°   Wind: 0mph
Humidity: 88%   Direction: NA
Pressure: 30.07"   Gusts: NA
Location:  36.08°N, 96.58°W
Report Text: KCUH 220455Z AUTO 00000KT 10SM SCT050 16/14 A3007 RMK AO2
Loading
Personal Weather Stations






























Interactive Weather Map
Tropical Storm Tracking
New forecast layout! Learn more

10-Day Weather Forecast

Advertisements
Track Severe Weather on mobile